sensor_id;sensor_type;location;lat;lon;timestamp;P1;durP1;ratioP1;P2;durP2;ratioP2
4547;SDS011;2286;51.570;7.090;2023-07-31T00:01:57;0.47;;;0.47;;
4547;SDS011;2286;51.570;7.090;2023-07-31T00:04:24;0.40;;;0.30;;
4547;SDS011;2286;51.570;7.090;2023-07-31T00:06:51;0.40;;;0.30;;
4547;SDS011;2286;51.570;7.090;2023-07-31T00:09:18;1.10;;;0.63;;
4547;SDS011;2286;51.570;7.090;2023-07-31T00:11:45;0.67;;;0.67;;
4547;SDS011;2286;51.570;7.090;2023-07-31T00:14:12;0.40;;;0.30;;
4547;SDS011;2286;51.570;7.090;2023-07-31T00:16:41;0.40;;;0.30;;
4547;SDS011;2286;51.570;7.090;2023-07-31T00:19:08;0.40;;;0.30;;
4547;SDS011;2286;51.570;7.090;2023-07-31T00:21:35;0.40;;;0.40;;
4547;SDS011;2286;51.570;7.090;2023-07-31T00:24:02;0.60;;;0.50;;
4547;SDS011;2286;51.570;7.090;2023-07-31T00:26:29;0.83;;;0.83;;
4547;SDS011;2286;51.570;7.090;2023-07-31T00:28:56;0.40;;;0.40;;
4547;SDS011;2286;51.570;7.090;2023-07-31T00:31:23;0.70;;;0.70;;
4547;SDS011;2286;51.570;7.090;2023-07-31T00:33:51;0.40;;;0.30;;
4547;SDS011;2286;51.570;7.090;2023-07-31T00:36:18;0.40;;;0.30;;
4547;SDS011;2286;51.570;7.090;2023-07-31T00:38:45;0.67;;;0.67;;
4547;SDS011;2286;51.570;7.090;2023-07-31T00:41:12;0.40;;;0.40;;
4547;SDS011;2286;51.570;7.090;2023-07-31T00:43:39;0.40;;;0.30;;
4547;SDS011;2286;51.570;7.090;2023-07-31T00:46:06;0.40;;;0.30;;
4547;SDS011;2286;51.570;7.090;2023-07-31T00:48:34;1.97;;;1.80;;
4547;SDS011;2286;51.570;7.090;2023-07-31T00:51:03;0.80;;;0.53;;
4547;SDS011;2286;51.570;7.090;2023-07-31T00:53:30;0.50;;;0.50;;
4547;SDS011;2286;51.570;7.090;2023-07-31T00:55:57;0.50;;;0.50;;
4547;SDS011;2286;51.570;7.090;2023-07-31T00:58:25;0.40;;;0.30;;
4547;SDS011;2286;51.570;7.090;2023-07-31T01:00:52;1.33;;;1.23;;
4547;SDS011;2286;51.570;7.090;2023-07-31T01:03:19;0.40;;;0.40;;
4547;SDS011;2286;51.570;7.090;2023-07-31T01:05:49;0.40;;;0.30;;
4547;SDS011;2286;51.570;7.090;2023-07-31T01:08:28;0.40;;;0.30;;
4547;SDS011;2286;51.570;7.090;2023-07-31T01:11:00;3.10;;;2.83;;
4547;SDS011;2286;51.570;7.090;2023-07-31T01:13:39;0.90;;;0.90;;
4547;SDS011;2286;51.570;7.090;2023-07-31T01:16:06;0.60;;;0.60;;
4547;SDS011;2286;51.570;7.090;2023-07-31T01:18:33;0.47;;;0.47;;
4547;SDS011;2286;51.570;7.090;2023-07-31T01:21:03;0.40;;;0.30;;
4547;SDS011;2286;51.570;7.090;2023-07-31T01:23:45;0.40;;;0.30;;
4547;SDS011;2286;51.570;7.090;2023-07-31T01:26:30;0.40;;;0.30;;
4547;SDS011;2286;51.570;7.090;2023-07-31T01:29:01;1.23;;;1.23;;
4547;SDS011;2286;51.570;7.090;2023-07-31T01:31:33;1.63;;;1.53;;
4547;SDS011;2286;51.570;7.090;2023-07-31T01:34:02;18.43;;;3.90;;
4547;SDS011;2286;51.570;7.090;2023-07-31T01:36:30;0.40;;;0.40;;
4547;SDS011;2286;51.570;7.090;2023-07-31T01:38:58;0.40;;;0.40;;
4547;SDS011;2286;51.570;7.090;2023-07-31T01:41:25;3.43;;;1.60;;
4547;SDS011;2286;51.570;7.090;2023-07-31T01:43:54;0.90;;;0.87;;
4547;SDS011;2286;51.570;7.090;2023-07-31T01:46:21;0.40;;;0.40;;
4547;SDS011;2286;51.570;7.090;2023-07-31T01:48:48;0.40;;;0.30;;
4547;SDS011;2286;51.570;7.090;2023-07-31T01:51:15;5.60;;;1.97;;
4547;SDS011;2286;51.570;7.090;2023-07-31T01:53:42;0.40;;;0.30;;
4547;SDS011;2286;51.570;7.090;2023-07-31T01:56:09;0.40;;;0.30;;
4547;SDS011;2286;51.570;7.090;2023-07-31T01:58:36;0.40;;;0.30;;
4547;SDS011;2286;51.570;7.090;2023-07-31T02:01:04;0.60;;;0.60;;
4547;SDS011;2286;51.570;7.090;2023-07-31T02:03:31;0.40;;;0.30;;
4547;SDS011;2286;51.570;7.090;2023-07-31T02:05:58;5.00;;;3.40;;
4547;SDS011;2286;51.570;7.090;2023-07-31T02:08:25;14.83;;;7.00;;
4547;SDS011;2286;51.570;7.090;2023-07-31T02:10:53;12.13;;;6.97;;
4547;SDS011;2286;51.570;7.090;2023-07-31T02:13:20;16.17;;;8.10;;
4547;SDS011;2286;51.570;7.090;2023-07-31T02:15:47;10.70;;;6.93;;
4547;SDS011;2286;51.570;7.090;2023-07-31T02:18:17;14.13;;;6.90;;
4547;SDS011;2286;51.570;7.090;2023-07-31T02:20:48;14.10;;;7.40;;
4547;SDS011;2286;51.570;7.090;2023-07-31T02:23:16;13.63;;;7.70;;
4547;SDS011;2286;51.570;7.090;2023-07-31T02:25:43;16.70;;;7.80;;
4547;SDS011;2286;51.570;7.090;2023-07-31T02:28:10;16.37;;;7.50;;
4547;SDS011;2286;51.570;7.090;2023-07-31T02:30:37;28.97;;;10.97;;
4547;SDS011;2286;51.570;7.090;2023-07-31T02:33:04;13.10;;;7.03;;
4547;SDS011;2286;51.570;7.090;2023-07-31T02:35:33;16.13;;;8.00;;
4547;SDS011;2286;51.570;7.090;2023-07-31T02:38:00;10.70;;;6.57;;
4547;SDS011;2286;51.570;7.090;2023-07-31T02:40:27;16.00;;;7.17;;
4547;SDS011;2286;51.570;7.090;2023-07-31T02:42:53;12.60;;;6.57;;
4547;SDS011;2286;51.570;7.090;2023-07-31T02:45:20;15.10;;;8.43;;
4547;SDS011;2286;51.570;7.090;2023-07-31T02:47:47;13.20;;;6.90;;
4547;SDS011;2286;51.570;7.090;2023-07-31T02:50:14;13.67;;;6.87;;
4547;SDS011;2286;51.570;7.090;2023-07-31T02:52:42;16.00;;;7.37;;
4547;SDS011;2286;51.570;7.090;2023-07-31T02:55:08;12.67;;;7.00;;
4547;SDS011;2286;51.570;7.090;2023-07-31T02:57:35;16.90;;;6.97;;
4547;SDS011;2286;51.570;7.090;2023-07-31T03:00:02;13.23;;;7.60;;
4547;SDS011;2286;51.570;7.090;2023-07-31T03:02:31;12.40;;;7.07;;
4547;SDS011;2286;51.570;7.090;2023-07-31T03:04:58;14.20;;;7.10;;
4547;SDS011;2286;51.570;7.090;2023-07-31T03:07:24;15.23;;;7.20;;
4547;SDS011;2286;51.570;7.090;2023-07-31T03:09:53;14.40;;;6.90;;
4547;SDS011;2286;51.570;7.090;2023-07-31T03:12:19;12.93;;;5.90;;
4547;SDS011;2286;51.570;7.090;2023-07-31T03:14:46;12.47;;;6.03;;
4547;SDS011;2286;51.570;7.090;2023-07-31T03:17:13;11.43;;;6.50;;
4547;SDS011;2286;51.570;7.090;2023-07-31T03:19:41;13.27;;;6.20;;
4547;SDS011;2286;51.570;7.090;2023-07-31T03:22:08;15.30;;;6.13;;
4547;SDS011;2286;51.570;7.090;2023-07-31T03:24:35;13.77;;;5.50;;
4547;SDS011;2286;51.570;7.090;2023-07-31T03:27:03;11.77;;;5.90;;
4547;SDS011;2286;51.570;7.090;2023-07-31T03:29:30;13.57;;;6.50;;
4547;SDS011;2286;51.570;7.090;2023-07-31T03:31:57;11.50;;;7.17;;
4547;SDS011;2286;51.570;7.090;2023-07-31T03:34:24;14.37;;;6.30;;
4547;SDS011;2286;51.570;7.090;2023-07-31T03:36:51;13.70;;;6.23;;
4547;SDS011;2286;51.570;7.090;2023-07-31T03:39:18;10.17;;;6.47;;
4547;SDS011;2286;51.570;7.090;2023-07-31T03:41:44;12.70;;;6.13;;
4547;SDS011;2286;51.570;7.090;2023-07-31T03:44:13;11.73;;;6.63;;
4547;SDS011;2286;51.570;7.090;2023-07-31T03:46:39;9.07;;;6.47;;
4547;SDS011;2286;51.570;7.090;2023-07-31T03:49:06;12.50;;;6.30;;
4547;SDS011;2286;51.570;7.090;2023-07-31T03:51:33;10.97;;;5.80;;
4547;SDS011;2286;51.570;7.090;2023-07-31T03:54:00;12.80;;;6.17;;
4547;SDS011;2286;51.570;7.090;2023-07-31T03:56:27;11.17;;;6.80;;
4547;SDS011;2286;51.570;7.090;2023-07-31T03:58:53;12.70;;;7.20;;
4547;SDS011;2286;51.570;7.090;2023-07-31T04:01:21;10.80;;;6.57;;
4547;SDS011;2286;51.570;7.090;2023-07-31T04:03:48;10.50;;;6.37;;
4547;SDS011;2286;51.570;7.090;2023-07-31T04:06:15;13.50;;;6.77;;
4547;SDS011;2286;51.570;7.090;2023-07-31T04:08:43;15.27;;;6.90;;
4547;SDS011;2286;51.570;7.090;2023-07-31T04:11:10;10.87;;;6.30;;
4547;SDS011;2286;51.570;7.090;2023-07-31T04:13:37;11.07;;;6.23;;
4547;SDS011;2286;51.570;7.090;2023-07-31T04:16:04;9.97;;;5.70;;
4547;SDS011;2286;51.570;7.090;2023-07-31T04:18:32;13.77;;;6.20;;
4547;SDS011;2286;51.570;7.090;2023-07-31T04:20:59;12.30;;;6.10;;
4547;SDS011;2286;51.570;7.090;2023-07-31T04:23:27;10.27;;;6.17;;
4547;SDS011;2286;51.570;7.090;2023-07-31T04:25:54;16.33;;;6.90;;
4547;SDS011;2286;51.570;7.090;2023-07-31T04:28:21;9.33;;;5.43;;
4547;SDS011;2286;51.570;7.090;2023-07-31T04:30:47;9.50;;;5.70;;
4547;SDS011;2286;51.570;7.090;2023-07-31T04:33:14;10.40;;;6.03;;
4547;SDS011;2286;51.570;7.090;2023-07-31T04:35:46;10.23;;;6.10;;
4547;SDS011;2286;51.570;7.090;2023-07-31T04:38:17;9.50;;;4.60;;
4547;SDS011;2286;51.570;7.090;2023-07-31T04:40:44;10.57;;;5.97;;
4547;SDS011;2286;51.570;7.090;2023-07-31T04:43:10;13.20;;;5.33;;
4547;SDS011;2286;51.570;7.090;2023-07-31T04:45:37;12.00;;;6.27;;
4547;SDS011;2286;51.570;7.090;2023-07-31T04:48:04;10.20;;;5.93;;
4547;SDS011;2286;51.570;7.090;2023-07-31T04:50:31;10.37;;;6.07;;
4547;SDS011;2286;51.570;7.090;2023-07-31T04:52:59;14.40;;;6.03;;
4547;SDS011;2286;51.570;7.090;2023-07-31T04:55:26;12.27;;;6.33;;
4547;SDS011;2286;51.570;7.090;2023-07-31T04:57:52;9.80;;;6.17;;
4547;SDS011;2286;51.570;7.090;2023-07-31T05:00:19;12.17;;;6.37;;
4547;SDS011;2286;51.570;7.090;2023-07-31T05:02:46;12.87;;;6.60;;
4547;SDS011;2286;51.570;7.090;2023-07-31T05:05:13;9.97;;;6.30;;
4547;SDS011;2286;51.570;7.090;2023-07-31T05:07:40;11.57;;;7.73;;
4547;SDS011;2286;51.570;7.090;2023-07-31T05:10:08;11.87;;;7.43;;
4547;SDS011;2286;51.570;7.090;2023-07-31T05:12:35;8.10;;;6.27;;
4547;SDS011;2286;51.570;7.090;2023-07-31T05:15:02;13.03;;;6.73;;
4547;SDS011;2286;51.570;7.090;2023-07-31T05:17:29;11.83;;;7.27;;
4547;SDS011;2286;51.570;7.090;2023-07-31T05:19:56;11.23;;;6.70;;
4547;SDS011;2286;51.570;7.090;2023-07-31T05:22:23;9.70;;;6.47;;
4547;SDS011;2286;51.570;7.090;2023-07-31T05:24:50;16.03;;;7.40;;
4547;SDS011;2286;51.570;7.090;2023-07-31T05:27:20;11.47;;;6.50;;
4547;SDS011;2286;51.570;7.090;2023-07-31T05:29:47;13.57;;;6.90;;
4547;SDS011;2286;51.570;7.090;2023-07-31T05:32:13;11.87;;;7.20;;
4547;SDS011;2286;51.570;7.090;2023-07-31T05:34:40;12.57;;;6.70;;
4547;SDS011;2286;51.570;7.090;2023-07-31T05:37:09;11.10;;;6.70;;
4547;SDS011;2286;51.570;7.090;2023-07-31T05:39:36;12.63;;;7.10;;
4547;SDS011;2286;51.570;7.090;2023-07-31T05:42:03;9.70;;;6.60;;
4547;SDS011;2286;51.570;7.090;2023-07-31T05:44:32;11.07;;;8.03;;
4547;SDS011;2286;51.570;7.090;2023-07-31T05:46:59;9.83;;;6.90;;
4547;SDS011;2286;51.570;7.090;2023-07-31T05:49:26;8.83;;;6.87;;
4547;SDS011;2286;51.570;7.090;2023-07-31T05:51:53;15.30;;;8.50;;
4547;SDS011;2286;51.570;7.090;2023-07-31T05:54:20;12.63;;;8.43;;
4547;SDS011;2286;51.570;7.090;2023-07-31T05:56:46;18.10;;;9.07;;
4547;SDS011;2286;51.570;7.090;2023-07-31T05:59:13;15.27;;;9.73;;
4547;SDS011;2286;51.570;7.090;2023-07-31T06:01:41;17.30;;;9.47;;
4547;SDS011;2286;51.570;7.090;2023-07-31T06:04:08;16.20;;;9.87;;
4547;SDS011;2286;51.570;7.090;2023-07-31T06:06:35;15.27;;;8.70;;
4547;SDS011;2286;51.570;7.090;2023-07-31T06:09:02;15.00;;;9.73;;
4547;SDS011;2286;51.570;7.090;2023-07-31T06:11:29;15.27;;;10.80;;
4547;SDS011;2286;51.570;7.090;2023-07-31T06:13:56;14.87;;;9.47;;
4547;SDS011;2286;51.570;7.090;2023-07-31T06:16:23;17.67;;;10.60;;
4547;SDS011;2286;51.570;7.090;2023-07-31T06:18:51;13.13;;;9.60;;
4547;SDS011;2286;51.570;7.090;2023-07-31T06:21:18;15.33;;;11.97;;
4547;SDS011;2286;51.570;7.090;2023-07-31T06:23:45;15.33;;;10.80;;
4547;SDS011;2286;51.570;7.090;2023-07-31T06:26:12;15.43;;;11.27;;
4547;SDS011;2286;51.570;7.090;2023-07-31T06:28:39;18.53;;;11.47;;
4547;SDS011;2286;51.570;7.090;2023-07-31T06:31:06;9.43;;;4.73;;
4547;SDS011;2286;51.570;7.090;2023-07-31T06:33:33;0.40;;;0.30;;
4547;SDS011;2286;51.570;7.090;2023-07-31T06:36:01;0.83;;;0.83;;
4547;SDS011;2286;51.570;7.090;2023-07-31T06:38:28;2.10;;;0.87;;
4547;SDS011;2286;51.570;7.090;2023-07-31T06:40:54;0.60;;;0.60;;
4547;SDS011;2286;51.570;7.090;2023-07-31T06:43:21;4.03;;;2.77;;
4547;SDS011;2286;51.570;7.090;2023-07-31T06:45:48;0.80;;;0.80;;
4547;SDS011;2286;51.570;7.090;2023-07-31T06:48:16;1.07;;;1.07;;
4547;SDS011;2286;51.570;7.090;2023-07-31T06:50:43;0.50;;;0.50;;
4547;SDS011;2286;51.570;7.090;2023-07-31T06:53:11;0.40;;;0.30;;
4547;SDS011;2286;51.570;7.090;2023-07-31T06:55:38;1.27;;;1.17;;
4547;SDS011;2286;51.570;7.090;2023-07-31T06:58:04;0.70;;;0.70;;
4547;SDS011;2286;51.570;7.090;2023-07-31T07:00:31;0.40;;;0.40;;
4547;SDS011;2286;51.570;7.090;2023-07-31T07:02:58;0.60;;;0.60;;
4547;SDS011;2286;51.570;7.090;2023-07-31T07:05:25;0.67;;;0.67;;
4547;SDS011;2286;51.570;7.090;2023-07-31T07:07:52;0.40;;;0.30;;
4547;SDS011;2286;51.570;7.090;2023-07-31T07:10:20;1.13;;;0.73;;
4547;SDS011;2286;51.570;7.090;2023-07-31T07:12:47;20.87;;;1.40;;
4547;SDS011;2286;51.570;7.090;2023-07-31T07:15:15;3.70;;;2.70;;
4547;SDS011;2286;51.570;7.090;2023-07-31T07:17:41;0.40;;;0.30;;
4547;SDS011;2286;51.570;7.090;2023-07-31T07:20:08;1.10;;;0.70;;
4547;SDS011;2286;51.570;7.090;2023-07-31T07:22:35;0.40;;;0.30;;
4547;SDS011;2286;51.570;7.090;2023-07-31T07:25:02;0.50;;;0.50;;
4547;SDS011;2286;51.570;7.090;2023-07-31T07:27:31;0.40;;;0.30;;
4547;SDS011;2286;51.570;7.090;2023-07-31T07:29:58;2.00;;;1.90;;
4547;SDS011;2286;51.570;7.090;2023-07-31T07:32:24;0.60;;;0.57;;
4547;SDS011;2286;51.570;7.090;2023-07-31T07:34:51;0.40;;;0.40;;
4547;SDS011;2286;51.570;7.090;2023-07-31T07:37:18;1.03;;;1.03;;
4547;SDS011;2286;51.570;7.090;2023-07-31T07:39:45;0.40;;;0.40;;
4547;SDS011;2286;51.570;7.090;2023-07-31T07:42:12;0.40;;;0.30;;
4547;SDS011;2286;51.570;7.090;2023-07-31T07:44:40;0.40;;;0.40;;
4547;SDS011;2286;51.570;7.090;2023-07-31T07:47:06;0.40;;;0.30;;
4547;SDS011;2286;51.570;7.090;2023-07-31T07:49:34;0.50;;;0.50;;
4547;SDS011;2286;51.570;7.090;2023-07-31T07:52:01;0.40;;;0.30;;
4547;SDS011;2286;51.570;7.090;2023-07-31T07:54:28;0.40;;;0.30;;
4547;SDS011;2286;51.570;7.090;2023-07-31T07:56:56;1.47;;;1.27;;
4547;SDS011;2286;51.570;7.090;2023-07-31T07:59:22;0.70;;;0.70;;
4547;SDS011;2286;51.570;7.090;2023-07-31T08:01:51;0.40;;;0.30;;
4547;SDS011;2286;51.570;7.090;2023-07-31T08:04:18;0.40;;;0.40;;
4547;SDS011;2286;51.570;7.090;2023-07-31T08:06:45;1.63;;;1.57;;
4547;SDS011;2286;51.570;7.090;2023-07-31T08:09:11;0.57;;;0.53;;
4547;SDS011;2286;51.570;7.090;2023-07-31T08:11:38;0.40;;;0.40;;
4547;SDS011;2286;51.570;7.090;2023-07-31T08:14:05;0.67;;;0.67;;
4547;SDS011;2286;51.570;7.090;2023-07-31T08:16:32;0.40;;;0.40;;
4547;SDS011;2286;51.570;7.090;2023-07-31T08:19:00;0.40;;;0.30;;
4547;SDS011;2286;51.570;7.090;2023-07-31T08:21:27;0.50;;;0.50;;
4547;SDS011;2286;51.570;7.090;2023-07-31T08:23:54;0.53;;;0.53;;
4547;SDS011;2286;51.570;7.090;2023-07-31T08:26:20;0.40;;;0.33;;
4547;SDS011;2286;51.570;7.090;2023-07-31T08:28:47;1.73;;;1.03;;
4547;SDS011;2286;51.570;7.090;2023-07-31T08:31:14;0.40;;;0.40;;
4547;SDS011;2286;51.570;7.090;2023-07-31T08:33:41;0.40;;;0.30;;
4547;SDS011;2286;51.570;7.090;2023-07-31T08:36:09;0.67;;;0.67;;
4547;SDS011;2286;51.570;7.090;2023-07-31T08:38:36;0.40;;;0.30;;
4547;SDS011;2286;51.570;7.090;2023-07-31T08:41:03;0.70;;;0.70;;
4547;SDS011;2286;51.570;7.090;2023-07-31T08:43:30;0.83;;;0.83;;
4547;SDS011;2286;51.570;7.090;2023-07-31T08:45:58;0.50;;;0.50;;
4547;SDS011;2286;51.570;7.090;2023-07-31T08:48:25;2.67;;;0.87;;
4547;SDS011;2286;51.570;7.090;2023-07-31T08:50:54;0.40;;;0.30;;
4547;SDS011;2286;51.570;7.090;2023-07-31T08:53:22;0.40;;;0.40;;
4547;SDS011;2286;51.570;7.090;2023-07-31T08:55:49;0.40;;;0.30;;
4547;SDS011;2286;51.570;7.090;2023-07-31T08:58:18;0.40;;;0.30;;
4547;SDS011;2286;51.570;7.090;2023-07-31T09:00:46;0.40;;;0.30;;
4547;SDS011;2286;51.570;7.090;2023-07-31T09:03:14;0.40;;;0.30;;
4547;SDS011;2286;51.570;7.090;2023-07-31T09:05:44;0.40;;;0.30;;
4547;SDS011;2286;51.570;7.090;2023-07-31T09:08:11;0.47;;;0.40;;
4547;SDS011;2286;51.570;7.090;2023-07-31T09:10:42;0.50;;;0.50;;
4547;SDS011;2286;51.570;7.090;2023-07-31T09:13:10;0.40;;;0.30;;
4547;SDS011;2286;51.570;7.090;2023-07-31T09:15:37;0.40;;;0.30;;
4547;SDS011;2286;51.570;7.090;2023-07-31T09:18:06;0.40;;;0.37;;
4547;SDS011;2286;51.570;7.090;2023-07-31T09:20:34;0.60;;;0.60;;
4547;SDS011;2286;51.570;7.090;2023-07-31T09:23:07;0.40;;;0.37;;
4547;SDS011;2286;51.570;7.090;2023-07-31T09:25:35;0.40;;;0.40;;
4547;SDS011;2286;51.570;7.090;2023-07-31T09:28:05;0.40;;;0.30;;
4547;SDS011;2286;51.570;7.090;2023-07-31T09:30:43;0.40;;;0.30;;
4547;SDS011;2286;51.570;7.090;2023-07-31T09:33:13;0.40;;;0.40;;
4547;SDS011;2286;51.570;7.090;2023-07-31T09:35:39;0.40;;;0.40;;
4547;SDS011;2286;51.570;7.090;2023-07-31T09:38:07;0.80;;;0.80;;
4547;SDS011;2286;51.570;7.090;2023-07-31T09:40:36;0.50;;;0.43;;
4547;SDS011;2286;51.570;7.090;2023-07-31T09:43:05;0.50;;;0.50;;
4547;SDS011;2286;51.570;7.090;2023-07-31T09:45:34;1.80;;;1.17;;
4547;SDS011;2286;51.570;7.090;2023-07-31T09:48:02;0.50;;;0.50;;
4547;SDS011;2286;51.570;7.090;2023-07-31T09:50:34;0.77;;;0.77;;
4547;SDS011;2286;51.570;7.090;2023-07-31T09:53:03;0.70;;;0.70;;
4547;SDS011;2286;51.570;7.090;2023-07-31T09:55:30;0.60;;;0.60;;
4547;SDS011;2286;51.570;7.090;2023-07-31T09:57:57;0.40;;;0.37;;
4547;SDS011;2286;51.570;7.090;2023-07-31T10:00:26;1.23;;;0.80;;
4547;SDS011;2286;51.570;7.090;2023-07-31T10:02:53;1.37;;;0.57;;
4547;SDS011;2286;51.570;7.090;2023-07-31T10:05:24;0.40;;;0.40;;
4547;SDS011;2286;51.570;7.090;2023-07-31T10:07:56;0.40;;;0.30;;
4547;SDS011;2286;51.570;7.090;2023-07-31T10:10:24;1.83;;;1.77;;
4547;SDS011;2286;51.570;7.090;2023-07-31T10:12:53;0.40;;;0.30;;
4547;SDS011;2286;51.570;7.090;2023-07-31T10:15:20;0.50;;;0.50;;
4547;SDS011;2286;51.570;7.090;2023-07-31T10:17:49;0.40;;;0.30;;
4547;SDS011;2286;51.570;7.090;2023-07-31T10:20:16;0.40;;;0.30;;
4547;SDS011;2286;51.570;7.090;2023-07-31T10:22:43;0.40;;;0.30;;
4547;SDS011;2286;51.570;7.090;2023-07-31T10:25:11;0.40;;;0.30;;
4547;SDS011;2286;51.570;7.090;2023-07-31T10:27:38;0.50;;;0.50;;
4547;SDS011;2286;51.570;7.090;2023-07-31T10:30:06;0.40;;;0.40;;
4547;SDS011;2286;51.570;7.090;2023-07-31T10:32:36;0.40;;;0.40;;
4547;SDS011;2286;51.570;7.090;2023-07-31T10:35:06;0.40;;;0.30;;
4547;SDS011;2286;51.570;7.090;2023-07-31T10:37:36;0.40;;;0.30;;
4547;SDS011;2286;51.570;7.090;2023-07-31T10:40:05;1.07;;;0.97;;
4547;SDS011;2286;51.570;7.090;2023-07-31T10:42:34;0.60;;;0.60;;
4547;SDS011;2286;51.570;7.090;2023-07-31T10:45:03;1.27;;;1.17;;
4547;SDS011;2286;51.570;7.090;2023-07-31T10:47:31;0.40;;;0.30;;
4547;SDS011;2286;51.570;7.090;2023-07-31T10:50:16;0.60;;;0.60;;
4547;SDS011;2286;51.570;7.090;2023-07-31T10:52:46;0.50;;;0.50;;
4547;SDS011;2286;51.570;7.090;2023-07-31T10:55:30;0.50;;;0.50;;
4547;SDS011;2286;51.570;7.090;2023-07-31T10:58:05;0.80;;;0.80;;
4547;SDS011;2286;51.570;7.090;2023-07-31T11:00:33;0.40;;;0.40;;
4547;SDS011;2286;51.570;7.090;2023-07-31T11:03:03;3.17;;;1.67;;
4547;SDS011;2286;51.570;7.090;2023-07-31T11:05:42;0.77;;;0.47;;
4547;SDS011;2286;51.570;7.090;2023-07-31T11:08:14;0.40;;;0.40;;
4547;SDS011;2286;51.570;7.090;2023-07-31T11:10:43;0.40;;;0.37;;
4547;SDS011;2286;51.570;7.090;2023-07-31T11:13:11;0.43;;;0.40;;
4547;SDS011;2286;51.570;7.090;2023-07-31T11:15:38;0.43;;;0.43;;
4547;SDS011;2286;51.570;7.090;2023-07-31T11:18:05;0.50;;;0.50;;
4547;SDS011;2286;51.570;7.090;2023-07-31T11:20:33;0.60;;;0.60;;
4547;SDS011;2286;51.570;7.090;2023-07-31T11:23:03;1.37;;;1.33;;
4547;SDS011;2286;51.570;7.090;2023-07-31T11:25:32;0.40;;;0.40;;
4547;SDS011;2286;51.570;7.090;2023-07-31T11:28:01;0.70;;;0.70;;
4547;SDS011;2286;51.570;7.090;2023-07-31T11:30:29;0.40;;;0.30;;
4547;SDS011;2286;51.570;7.090;2023-07-31T11:32:56;0.40;;;0.30;;
4547;SDS011;2286;51.570;7.090;2023-07-31T11:35:23;0.70;;;0.50;;
4547;SDS011;2286;51.570;7.090;2023-07-31T11:37:50;1.80;;;1.00;;
4547;SDS011;2286;51.570;7.090;2023-07-31T11:40:18;0.93;;;0.93;;
4547;SDS011;2286;51.570;7.090;2023-07-31T11:42:45;0.50;;;0.47;;
4547;SDS011;2286;51.570;7.090;2023-07-31T11:45:12;0.80;;;0.80;;
4547;SDS011;2286;51.570;7.090;2023-07-31T11:47:38;1.50;;;1.50;;
4547;SDS011;2286;51.570;7.090;2023-07-31T11:50:06;0.40;;;0.30;;
4547;SDS011;2286;51.570;7.090;2023-07-31T11:52:37;0.40;;;0.37;;
4547;SDS011;2286;51.570;7.090;2023-07-31T11:55:07;0.40;;;0.40;;
4547;SDS011;2286;51.570;7.090;2023-07-31T11:57:37;0.40;;;0.40;;
4547;SDS011;2286;51.570;7.090;2023-07-31T12:00:06;1.33;;;1.03;;
4547;SDS011;2286;51.570;7.090;2023-07-31T12:02:34;0.40;;;0.30;;
4547;SDS011;2286;51.570;7.090;2023-07-31T12:05:02;0.40;;;0.30;;
4547;SDS011;2286;51.570;7.090;2023-07-31T12:07:42;0.80;;;0.80;;
4547;SDS011;2286;51.570;7.090;2023-07-31T12:10:10;0.40;;;0.40;;
4547;SDS011;2286;51.570;7.090;2023-07-31T12:12:38;0.40;;;0.30;;
4547;SDS011;2286;51.570;7.090;2023-07-31T12:15:13;0.40;;;0.40;;
4547;SDS011;2286;51.570;7.090;2023-07-31T12:17:41;0.60;;;0.60;;
4547;SDS011;2286;51.570;7.090;2023-07-31T12:20:08;0.60;;;0.60;;
4547;SDS011;2286;51.570;7.090;2023-07-31T12:22:36;0.87;;;0.87;;
4547;SDS011;2286;51.570;7.090;2023-07-31T12:25:03;0.40;;;0.40;;
4547;SDS011;2286;51.570;7.090;2023-07-31T12:27:32;0.70;;;0.70;;
4547;SDS011;2286;51.570;7.090;2023-07-31T12:30:03;0.50;;;0.50;;
4547;SDS011;2286;51.570;7.090;2023-07-31T12:32:31;0.40;;;0.30;;
4547;SDS011;2286;51.570;7.090;2023-07-31T12:34:59;0.60;;;0.60;;
4547;SDS011;2286;51.570;7.090;2023-07-31T12:37:28;0.50;;;0.50;;
4547;SDS011;2286;51.570;7.090;2023-07-31T12:39:54;0.40;;;0.40;;
4547;SDS011;2286;51.570;7.090;2023-07-31T12:42:25;1.27;;;0.93;;
4547;SDS011;2286;51.570;7.090;2023-07-31T12:44:52;0.70;;;0.70;;
4547;SDS011;2286;51.570;7.090;2023-07-31T12:47:20;0.50;;;0.50;;
4547;SDS011;2286;51.570;7.090;2023-07-31T12:49:47;0.70;;;0.70;;
4547;SDS011;2286;51.570;7.090;2023-07-31T12:52:14;0.40;;;0.30;;
4547;SDS011;2286;51.570;7.090;2023-07-31T12:54:40;1.63;;;1.37;;
4547;SDS011;2286;51.570;7.090;2023-07-31T12:57:07;0.40;;;0.40;;
4547;SDS011;2286;51.570;7.090;2023-07-31T12:59:34;0.40;;;0.30;;
4547;SDS011;2286;51.570;7.090;2023-07-31T13:02:01;0.60;;;0.60;;
4547;SDS011;2286;51.570;7.090;2023-07-31T13:04:29;0.40;;;0.40;;
4547;SDS011;2286;51.570;7.090;2023-07-31T13:06:56;0.40;;;0.40;;
4547;SDS011;2286;51.570;7.090;2023-07-31T13:09:23;0.70;;;0.70;;
4547;SDS011;2286;51.570;7.090;2023-07-31T13:11:50;0.60;;;0.60;;
4547;SDS011;2286;51.570;7.090;2023-07-31T13:14:16;0.40;;;0.40;;
4547;SDS011;2286;51.570;7.090;2023-07-31T13:16:43;0.40;;;0.40;;
4547;SDS011;2286;51.570;7.090;2023-07-31T13:19:09;0.40;;;0.30;;
4547;SDS011;2286;51.570;7.090;2023-07-31T13:21:37;0.60;;;0.60;;
4547;SDS011;2286;51.570;7.090;2023-07-31T13:24:05;0.40;;;0.30;;
4547;SDS011;2286;51.570;7.090;2023-07-31T13:26:31;0.40;;;0.30;;
4547;SDS011;2286;51.570;7.090;2023-07-31T13:28:59;2.20;;;0.83;;
4547;SDS011;2286;51.570;7.090;2023-07-31T13:31:26;0.53;;;0.53;;
4547;SDS011;2286;51.570;7.090;2023-07-31T13:33:52;0.50;;;0.50;;
4547;SDS011;2286;51.570;7.090;2023-07-31T13:36:19;0.40;;;0.37;;
4547;SDS011;2286;51.570;7.090;2023-07-31T13:38:47;0.40;;;0.30;;
4547;SDS011;2286;51.570;7.090;2023-07-31T13:41:14;0.40;;;0.30;;
4547;SDS011;2286;51.570;7.090;2023-07-31T13:43:41;0.40;;;0.30;;
4547;SDS011;2286;51.570;7.090;2023-07-31T13:46:07;0.73;;;0.73;;
4547;SDS011;2286;51.570;7.090;2023-07-31T13:48:35;0.80;;;0.60;;
4547;SDS011;2286;51.570;7.090;2023-07-31T13:51:02;1.13;;;1.10;;
4547;SDS011;2286;51.570;7.090;2023-07-31T13:53:29;5.87;;;5.27;;
4547;SDS011;2286;51.570;7.090;2023-07-31T13:55:58;5.07;;;4.33;;
4547;SDS011;2286;51.570;7.090;2023-07-31T13:58:24;4.60;;;3.97;;
4547;SDS011;2286;51.570;7.090;2023-07-31T14:00:51;5.20;;;4.00;;
4547;SDS011;2286;51.570;7.090;2023-07-31T14:03:18;5.03;;;4.07;;
4547;SDS011;2286;51.570;7.090;2023-07-31T14:05:45;4.17;;;3.77;;
4547;SDS011;2286;51.570;7.090;2023-07-31T14:08:12;4.40;;;4.10;;
4547;SDS011;2286;51.570;7.090;2023-07-31T14:10:38;4.23;;;3.83;;
4547;SDS011;2286;51.570;7.090;2023-07-31T14:13:06;3.90;;;3.60;;
4547;SDS011;2286;51.570;7.090;2023-07-31T14:15:33;4.43;;;4.13;;
4547;SDS011;2286;51.570;7.090;2023-07-31T14:18:01;4.63;;;4.03;;
4547;SDS011;2286;51.570;7.090;2023-07-31T14:20:27;4.23;;;3.93;;
4547;SDS011;2286;51.570;7.090;2023-07-31T14:22:54;3.90;;;3.67;;
4547;SDS011;2286;51.570;7.090;2023-07-31T14:25:21;4.40;;;3.93;;
4547;SDS011;2286;51.570;7.090;2023-07-31T14:27:48;3.90;;;3.60;;
4547;SDS011;2286;51.570;7.090;2023-07-31T14:30:16;4.50;;;3.57;;
4547;SDS011;2286;51.570;7.090;2023-07-31T14:32:43;6.30;;;3.50;;
4547;SDS011;2286;51.570;7.090;2023-07-31T14:35:10;3.73;;;3.40;;
4547;SDS011;2286;51.570;7.090;2023-07-31T14:37:37;5.87;;;4.00;;
4547;SDS011;2286;51.570;7.090;2023-07-31T14:40:04;4.23;;;3.83;;
4547;SDS011;2286;51.570;7.090;2023-07-31T14:42:32;4.20;;;3.80;;
4547;SDS011;2286;51.570;7.090;2023-07-31T14:44:59;6.03;;;4.20;;
4547;SDS011;2286;51.570;7.090;2023-07-31T14:47:27;5.57;;;3.73;;
4547;SDS011;2286;51.570;7.090;2023-07-31T14:49:56;4.07;;;3.60;;
4547;SDS011;2286;51.570;7.090;2023-07-31T14:52:22;4.63;;;4.17;;
4547;SDS011;2286;51.570;7.090;2023-07-31T14:54:49;4.70;;;4.20;;
4547;SDS011;2286;51.570;7.090;2023-07-31T14:57:16;4.17;;;3.77;;
4547;SDS011;2286;51.570;7.090;2023-07-31T14:59:43;6.00;;;4.03;;
4547;SDS011;2286;51.570;7.090;2023-07-31T15:02:11;8.77;;;4.67;;
4547;SDS011;2286;51.570;7.090;2023-07-31T15:04:39;5.33;;;4.60;;
4547;SDS011;2286;51.570;7.090;2023-07-31T15:07:06;4.60;;;4.13;;
4547;SDS011;2286;51.570;7.090;2023-07-31T15:09:33;5.23;;;3.40;;
4547;SDS011;2286;51.570;7.090;2023-07-31T15:12:00;4.37;;;3.97;;
4547;SDS011;2286;51.570;7.090;2023-07-31T15:14:27;5.87;;;4.43;;
4547;SDS011;2286;51.570;7.090;2023-07-31T15:16:56;5.47;;;4.23;;